createdAt,value
2023-04-08T00:01:20.315Z,11.17
2023-04-08T00:03:48.893Z,11.17
2023-04-08T00:06:16.556Z,11.20
2023-04-08T00:08:44.933Z,11.21
2023-04-08T00:11:12.188Z,11.23
2023-04-08T00:13:39.536Z,11.22
2023-04-08T00:16:07.818Z,11.25
2023-04-08T00:18:37.608Z,11.28
2023-04-08T00:21:13.285Z,11.28
2023-04-08T00:23:40.558Z,11.29
2023-04-08T00:26:07.985Z,11.31
2023-04-08T00:28:36.051Z,11.33
2023-04-08T00:31:03.644Z,11.34
2023-04-08T00:33:36.395Z,11.31
2023-04-08T00:36:04.222Z,11.29
2023-04-08T00:38:31.716Z,11.31
2023-04-08T00:40:58.875Z,11.27
2023-04-08T00:43:26.609Z,11.25
2023-04-08T00:45:54.300Z,11.25
2023-04-08T00:48:23.694Z,11.28
2023-04-08T00:50:56.064Z,11.29
2023-04-08T00:53:43.081Z,11.32
2023-04-08T00:56:10.535Z,11.30
2023-04-08T00:58:38.203Z,11.29
2023-04-08T01:01:07.747Z,11.32
2023-04-08T01:03:50.273Z,11.31
2023-04-08T01:06:27.089Z,11.27
2023-04-08T01:08:54.891Z,11.26
2023-04-08T01:11:22.308Z,11.27
2023-04-08T01:13:49.676Z,11.24
2023-04-08T01:16:19.514Z,11.19
2023-04-08T01:18:46.802Z,11.16
2023-04-08T01:21:15.513Z,11.15
2023-04-08T01:23:43.282Z,11.14
2023-04-08T01:26:13.331Z,11.15
2023-04-08T01:28:40.543Z,11.15
2023-04-08T01:31:08.201Z,11.11
2023-04-08T01:33:35.973Z,11.07
2023-04-08T01:36:03.572Z,11.06
2023-04-08T01:38:31.712Z,11.06
2023-04-08T01:40:59.608Z,11.08
2023-04-08T01:43:27.142Z,11.09
2023-04-08T01:45:57.780Z,11.10
2023-04-08T01:48:25.324Z,11.11
2023-04-08T01:50:53.103Z,11.12
2023-04-08T01:53:20.546Z,11.12
2023-04-08T01:55:50.026Z,11.13
2023-04-08T01:58:21.097Z,11.13
2023-04-08T02:00:48.455Z,11.10
2023-04-08T02:03:17.561Z,11.05
2023-04-08T02:05:47.247Z,11.02
2023-04-08T02:08:14.911Z,11.03
2023-04-08T02:10:42.275Z,11.02
2023-04-08T02:13:09.823Z,10.99
2023-04-08T02:15:38.032Z,11.00
2023-04-08T02:18:09.074Z,11.03
2023-04-08T02:20:57.278Z,11.03
2023-04-08T02:23:32.760Z,11.05
2023-04-08T02:26:00.286Z,11.04
2023-04-08T02:28:27.742Z,10.99
2023-04-08T02:30:55.300Z,10.99
2023-04-08T02:33:24.702Z,11.02
2023-04-08T02:35:54.214Z,11.00
2023-04-08T02:38:29.689Z,10.98
2023-04-08T02:40:58.163Z,10.98
2023-04-08T02:43:32.140Z,10.99
2023-04-08T02:46:06.908Z,10.95
2023-04-08T02:48:37.216Z,10.93
2023-04-08T02:51:04.860Z,10.94
2023-04-08T02:53:33.849Z,10.97
2023-04-08T02:56:01.429Z,10.99
2023-04-08T02:58:29.378Z,11.01
2023-04-08T03:00:57.518Z,11.03
2023-04-08T03:03:30.032Z,11.03
2023-04-08T03:05:58.403Z,11.03
2023-04-08T03:08:26.056Z,11.04
2023-04-08T03:10:53.252Z,11.03
2023-04-08T03:13:20.768Z,11.04
2023-04-08T03:15:48.333Z,11.05
2023-04-08T03:18:17.520Z,11.05
2023-04-08T03:20:44.730Z,11.06
2023-04-08T03:23:13.456Z,11.07
2023-04-08T03:25:41.155Z,11.06
2023-04-08T03:28:08.579Z,11.03
2023-04-08T03:30:36.242Z,11.04
2023-04-08T03:33:09.305Z,11.05
2023-04-08T03:35:38.456Z,11.06
2023-04-08T03:38:05.908Z,11.05
2023-04-08T03:40:33.331Z,11.07
2023-04-08T03:43:01.255Z,11.08
2023-04-08T03:45:29.170Z,11.10
2023-04-08T03:47:57.470Z,11.12
2023-04-08T03:50:24.789Z,11.14
2023-04-08T03:52:53.102Z,11.15
2023-04-08T03:55:20.528Z,11.15
2023-04-08T03:57:47.678Z,11.15
2023-04-08T04:00:15.106Z,11.18
2023-04-08T04:03:06.161Z,11.15
2023-04-08T04:05:34.839Z,11.15
2023-04-08T04:08:02.689Z,11.16
2023-04-08T04:10:30.963Z,11.13
2023-04-08T04:12:58.326Z,11.10
2023-04-08T04:15:27.784Z,11.09
2023-04-08T04:17:55.978Z,11.08
2023-04-08T04:20:25.512Z,11.07
2023-04-08T04:22:53.061Z,11.05
2023-04-08T04:25:20.548Z,10.98
2023-04-08T04:27:51.356Z,10.89
2023-04-08T04:30:19.324Z,10.84
2023-04-08T04:32:48.656Z,10.81
2023-04-08T04:35:15.979Z,10.83
2023-04-08T04:37:43.329Z,10.85
2023-04-08T04:40:11.002Z,10.86
2023-04-08T04:42:38.856Z,10.88
2023-04-08T04:45:06.617Z,10.92
2023-04-08T04:47:33.884Z,10.95
2023-04-08T04:50:01.438Z,11.00
2023-04-08T04:52:35.647Z,11.02
2023-04-08T04:55:03.821Z,11.05
2023-04-08T04:57:31.227Z,11.08
2023-04-08T05:00:02.210Z,11.12
2023-04-08T05:02:31.093Z,11.16
2023-04-08T05:04:58.510Z,11.20
2023-04-08T05:07:27.455Z,11.22
2023-04-08T05:09:54.954Z,11.25
2023-04-08T05:12:22.274Z,11.28
2023-04-08T05:14:53.005Z,11.29
2023-04-08T05:17:21.178Z,11.33
2023-04-08T05:19:49.470Z,11.39
2023-04-08T05:22:17.396Z,11.50
2023-04-08T05:24:45.029Z,11.58
2023-04-08T05:27:12.343Z,11.63
2023-04-08T05:29:41.490Z,11.71
2023-04-08T05:32:09.200Z,11.79
2023-04-08T05:34:36.755Z,11.86
2023-04-08T05:37:04.243Z,11.91
2023-04-08T05:39:33.407Z,11.96
2023-04-08T05:42:01.693Z,11.98
2023-04-08T05:44:29.450Z,12.00
2023-04-08T05:46:57.466Z,12.03
2023-04-08T05:49:24.800Z,12.07
2023-04-08T05:51:52.845Z,12.08
2023-04-08T05:54:20.606Z,12.08
2023-04-08T05:56:52.260Z,12.10
2023-04-08T05:59:19.920Z,12.14
2023-04-08T06:01:47.305Z,12.20
2023-04-08T06:04:17.175Z,12.25
2023-04-08T06:06:44.637Z,12.36
2023-04-08T06:09:12.135Z,12.49
2023-04-08T06:11:59.928Z,12.64
2023-04-08T06:14:27.488Z,12.79
2023-04-08T06:16:56.719Z,12.91
2023-04-08T06:19:24.972Z,12.98
2023-04-08T06:21:52.328Z,13.06
2023-04-08T06:24:19.675Z,13.15
2023-04-08T06:26:47.545Z,13.23
2023-04-08T06:29:15.103Z,13.30
2023-04-08T06:31:45.373Z,13.36
2023-04-08T06:34:12.770Z,13.44
2023-04-08T06:36:40.333Z,13.53
2023-04-08T06:39:08.103Z,13.57
2023-04-08T06:41:35.352Z,13.57
2023-04-08T06:44:04.246Z,13.60
2023-04-08T06:46:31.387Z,13.64
2023-04-08T06:48:58.956Z,13.70
2023-04-08T06:51:27.430Z,13.75
2023-04-08T06:53:54.673Z,13.84
2023-04-08T06:56:22.655Z,13.92
2023-04-08T06:58:51.794Z,14.02
2023-04-08T07:01:19.279Z,14.12
2023-04-08T07:03:47.152Z,14.25
2023-04-08T07:06:15.042Z,14.38
2023-04-08T07:08:42.284Z,14.50
2023-04-08T07:11:11.971Z,14.63
2023-04-08T07:13:39.670Z,14.73
2023-04-08T07:16:08.040Z,14.82
2023-04-08T07:18:36.241Z,14.89
2023-04-08T07:21:05.270Z,14.93
2023-04-08T07:23:33.893Z,14.98
2023-04-08T07:26:03.467Z,15.01
2023-04-08T07:28:32.117Z,15.06
2023-04-08T07:31:17.015Z,15.09
2023-04-08T07:33:44.809Z,15.12
2023-04-08T07:36:18.113Z,15.13
2023-04-08T07:38:46.792Z,15.13
2023-04-08T07:41:18.953Z,15.13
2023-04-08T07:43:46.126Z,15.15
2023-04-08T07:46:13.540Z,15.22
2023-04-08T07:48:41.115Z,15.33
2023-04-08T07:51:11.087Z,15.43
2023-04-08T07:53:39.841Z,15.53
2023-04-08T07:56:11.017Z,15.63
2023-04-08T07:58:40.006Z,15.75
2023-04-08T08:01:14.862Z,15.85
2023-04-08T08:03:43.067Z,15.96
2023-04-08T08:06:13.382Z,16.08
2023-04-08T08:08:41.867Z,16.16
2023-04-08T08:11:09.157Z,16.24
2023-04-08T08:13:43.176Z,16.29
2023-04-08T08:16:11.660Z,16.33
2023-04-08T08:18:44.217Z,16.39
2023-04-08T08:21:15.637Z,16.46
2023-04-08T08:23:42.896Z,16.53
2023-04-08T08:26:10.725Z,16.60
2023-04-08T08:28:39.557Z,16.68
2023-04-08T08:31:07.178Z,16.72
2023-04-08T08:33:35.170Z,16.77
2023-04-08T08:36:05.091Z,16.82
2023-04-08T08:38:33.176Z,16.85
2023-04-08T08:41:00.321Z,16.84
2023-04-08T08:43:28.566Z,16.88
2023-04-08T08:45:56.053Z,16.92
2023-04-08T08:48:23.315Z,16.99
2023-04-08T08:50:51.118Z,17.11
2023-04-08T08:53:20.263Z,17.25
2023-04-08T08:58:20.186Z,17.53
2023-04-08T09:00:47.882Z,17.66
2023-04-08T09:03:19.808Z,17.76
2023-04-08T09:05:55.249Z,17.90
2023-04-08T09:08:33.489Z,18.10
2023-04-08T09:11:21.261Z,18.31
2023-04-08T09:13:49.583Z,18.50
2023-04-08T09:16:18.478Z,18.56
2023-04-08T09:18:46.834Z,18.59
2023-04-08T09:21:14.189Z,18.56
2023-04-08T09:23:42.543Z,18.54
2023-04-08T09:26:12.740Z,18.64
2023-04-08T09:28:41.807Z,18.80
2023-04-08T09:31:26.039Z,18.86
2023-04-08T09:33:59.708Z,19.01
2023-04-08T09:36:27.738Z,19.19
2023-04-08T09:38:55.190Z,19.44
2023-04-08T09:41:23.412Z,19.69
2023-04-08T09:43:52.718Z,20.01
2023-04-08T09:46:41.287Z,20.30
2023-04-08T09:49:12.297Z,20.39
2023-04-08T09:51:45.162Z,20.33
2023-04-08T09:54:13.591Z,20.45
2023-04-08T09:56:41.665Z,20.54
2023-04-08T09:59:14.356Z,20.55
2023-04-08T10:01:43.524Z,20.61
2023-04-08T10:04:12.495Z,20.69
2023-04-08T10:06:41.858Z,20.75
2023-04-08T10:09:09.790Z,20.77
2023-04-08T10:11:37.159Z,20.65
2023-04-08T10:14:05.156Z,20.61
2023-04-08T10:16:33.256Z,20.69
2023-04-08T10:19:01.385Z,20.75
2023-04-08T10:21:36.652Z,20.89
2023-04-08T10:24:07.628Z,21.08
2023-04-08T10:26:35.696Z,21.35
2023-04-08T10:29:24.063Z,21.64
2023-04-08T10:31:51.411Z,21.89
2023-04-08T10:34:20.919Z,22.04
2023-04-08T10:36:48.782Z,22.19
2023-04-08T10:39:18.596Z,22.26
2023-04-08T10:41:46.466Z,22.30
2023-04-08T10:44:17.501Z,22.42
2023-04-08T10:46:46.391Z,22.56
2023-04-08T10:49:14.130Z,22.69
2023-04-08T10:51:48.307Z,22.90
2023-04-08T10:54:17.357Z,23.25
2023-04-08T10:56:49.120Z,23.66
2023-04-08T10:59:31.512Z,24.09
2023-04-08T11:02:00.804Z,24.58
2023-04-08T11:04:28.243Z,25.13
2023-04-08T11:06:57.909Z,25.57
2023-04-08T11:09:25.655Z,25.91
2023-04-08T11:11:53.235Z,26.18
2023-04-08T11:14:22.108Z,26.43
2023-04-08T11:16:49.569Z,26.67
2023-04-08T11:19:17.545Z,26.91
2023-04-08T11:21:46.151Z,27.03
2023-04-08T11:24:13.921Z,27.15
2023-04-08T11:26:41.742Z,27.27
2023-04-08T11:29:14.888Z,27.24
2023-04-08T11:31:42.662Z,27.40
2023-04-08T11:34:12.593Z,27.66
2023-04-08T11:36:40.205Z,27.89
2023-04-08T11:39:08.590Z,27.92
2023-04-08T11:41:37.580Z,28.01
2023-04-08T11:44:06.536Z,28.26
2023-04-08T11:46:35.164Z,28.61
2023-04-08T11:49:03.529Z,28.98
2023-04-08T11:51:54.509Z,29.25
2023-04-08T11:54:28.003Z,29.42
2023-04-08T11:56:57.816Z,29.58
2023-04-08T11:59:27.302Z,29.79
2023-04-08T12:01:57.075Z,30.06
2023-04-08T12:04:24.424Z,30.13
2023-04-08T12:06:53.275Z,30.27
2023-04-08T12:09:20.848Z,30.48
2023-04-08T12:11:49.009Z,30.70
2023-04-08T12:14:17.691Z,30.88
2023-04-08T12:16:44.890Z,31.02
2023-04-08T12:19:12.298Z,31.05
2023-04-08T12:21:39.959Z,30.82
2023-04-08T12:24:07.465Z,30.35
2023-04-08T12:26:39.274Z,29.89
2023-04-08T12:29:09.087Z,29.29
2023-04-08T12:31:36.360Z,28.47
2023-04-08T12:34:06.766Z,27.62
2023-04-08T12:36:34.537Z,26.75
2023-04-08T12:39:05.164Z,25.51
2023-04-08T12:41:33.335Z,24.34
2023-04-08T12:44:00.699Z,23.19
2023-04-08T12:46:31.291Z,22.23
2023-04-08T12:49:04.302Z,21.55
2023-04-08T12:51:39.244Z,21.01
2023-04-08T12:54:06.706Z,20.53
2023-04-08T12:56:34.256Z,20.12
2023-04-08T12:59:02.031Z,19.79
2023-04-08T13:01:30.264Z,19.42
2023-04-08T13:03:57.791Z,19.02
2023-04-08T13:06:27.260Z,18.65
2023-04-08T13:08:55.065Z,18.38
2023-04-08T13:11:22.904Z,18.08
2023-04-08T13:13:50.434Z,17.77
2023-04-08T13:16:18.208Z,17.52
2023-04-08T13:18:48.772Z,17.26
2023-04-08T13:21:16.529Z,17.07
2023-04-08T13:23:43.860Z,16.90
2023-04-08T13:26:11.112Z,16.58
2023-04-08T13:28:55.881Z,16.17
2023-04-08T13:31:26.195Z,15.82
2023-04-08T13:33:56.884Z,15.59
2023-04-08T13:36:28.175Z,15.46
2023-04-08T13:38:56.074Z,15.36
2023-04-08T13:41:24.868Z,15.21
2023-04-08T13:43:53.201Z,14.99
2023-04-08T13:46:20.996Z,14.84
2023-04-08T13:48:48.790Z,14.80
2023-04-08T13:51:16.630Z,14.68
2023-04-08T13:53:44.357Z,14.49
2023-04-08T13:56:13.247Z,14.31
2023-04-08T13:58:41.319Z,14.22
2023-04-08T14:01:08.899Z,14.18
2023-04-08T14:03:36.877Z,14.18
2023-04-08T14:06:04.610Z,14.20
2023-04-08T14:08:33.911Z,14.25
2023-04-08T14:11:04.743Z,14.26
2023-04-08T14:13:32.029Z,14.16
2023-04-08T14:16:01.982Z,13.96
2023-04-08T14:18:30.875Z,13.83
2023-04-08T14:20:58.607Z,13.81
2023-04-08T14:23:26.192Z,13.82
2023-04-08T14:25:53.568Z,13.84
2023-04-08T14:28:21.141Z,13.90
2023-04-08T14:30:49.059Z,13.91
2023-04-08T14:33:17.383Z,13.93
2023-04-08T14:35:45.574Z,13.93
2023-04-08T14:38:13.330Z,13.95
2023-04-08T14:40:40.879Z,14.03
2023-04-08T14:43:09.053Z,14.09
2023-04-08T14:45:36.409Z,14.12
2023-04-08T14:48:03.870Z,14.10
2023-04-08T14:50:31.949Z,14.12
2023-04-08T14:52:59.194Z,14.13
2023-04-08T14:55:28.143Z,14.16
2023-04-08T14:57:56.866Z,14.23
2023-04-08T15:00:24.222Z,14.31
2023-04-08T15:03:10.705Z,14.38
2023-04-08T15:05:42.416Z,14.44
2023-04-08T15:08:09.875Z,14.48
2023-04-08T15:10:38.054Z,14.54
2023-04-08T15:13:05.320Z,14.58
2023-04-08T15:15:32.682Z,14.60
2023-04-08T15:18:00.289Z,14.64
2023-04-08T15:20:27.729Z,14.67
2023-04-08T15:22:55.493Z,14.70
2023-04-08T15:25:22.558Z,14.73
2023-04-08T15:27:49.736Z,14.77
2023-04-08T15:30:23.799Z,14.81
2023-04-08T15:32:52.205Z,14.82
2023-04-08T15:35:19.673Z,14.82
2023-04-08T15:37:47.960Z,14.82
2023-04-08T15:40:15.782Z,14.81
2023-04-08T15:42:44.361Z,14.80
2023-04-08T15:45:11.769Z,14.79
2023-04-08T15:47:39.619Z,14.78
2023-04-08T15:50:07.445Z,14.78
2023-04-08T15:52:36.336Z,14.76
2023-04-08T15:55:04.204Z,14.70
2023-04-08T15:57:32.178Z,14.65
2023-04-08T15:59:59.976Z,14.61
2023-04-08T16:02:39.396Z,14.58
2023-04-08T16:05:07.340Z,14.56
2023-04-08T16:07:34.908Z,14.50
2023-04-08T16:10:02.266Z,14.42
2023-04-08T16:12:29.961Z,14.36
2023-04-08T16:14:57.409Z,14.31
2023-04-08T16:17:25.269Z,14.27
2023-04-08T16:19:59.379Z,14.22
2023-04-08T16:22:27.218Z,14.19
2023-04-08T16:24:54.878Z,14.15
2023-04-08T16:27:22.337Z,14.13
2023-04-08T16:29:49.497Z,14.08
2023-04-08T16:32:17.248Z,14.03
2023-04-08T16:34:44.838Z,13.95
2023-04-08T16:37:14.387Z,13.92
2023-04-08T16:39:42.178Z,13.90
2023-04-08T16:42:09.839Z,13.88
2023-04-08T16:44:38.485Z,13.85
2023-04-08T16:47:06.288Z,13.83
2023-04-08T16:49:33.545Z,13.83
2023-04-08T16:52:01.105Z,13.81
2023-04-08T16:54:28.764Z,13.78
2023-04-08T16:56:56.630Z,13.77
2023-04-08T16:59:24.606Z,13.75
2023-04-08T17:01:54.461Z,13.72
2023-04-08T17:04:22.995Z,13.73
2023-04-08T17:06:51.781Z,13.76
2023-04-08T17:09:21.815Z,13.79
2023-04-08T17:11:49.253Z,13.80
2023-04-08T17:14:16.834Z,13.81
2023-04-08T17:16:46.344Z,13.87
2023-04-08T17:19:15.011Z,13.94
2023-04-08T17:21:42.568Z,13.96
2023-04-08T17:24:11.453Z,13.98
2023-04-08T17:26:40.399Z,14.01
2023-04-08T17:29:08.229Z,14.03
2023-04-08T17:31:36.337Z,14.02
2023-04-08T17:34:03.524Z,13.95
2023-04-08T17:36:31.508Z,13.94
2023-04-08T17:38:59.480Z,13.96
2023-04-08T17:41:39.004Z,13.99
2023-04-08T17:44:07.493Z,13.96
2023-04-08T17:46:35.256Z,13.95
2023-04-08T17:49:07.192Z,13.93
2023-04-08T17:51:34.987Z,13.91
2023-04-08T17:54:02.689Z,13.87
2023-04-08T17:56:30.710Z,13.83
2023-04-08T17:58:58.602Z,13.78
2023-04-08T18:01:27.697Z,13.72
2023-04-08T18:03:56.069Z,13.66
2023-04-08T18:06:23.710Z,13.59
2023-04-08T18:08:51.190Z,13.54
2023-04-08T18:11:20.581Z,13.53
2023-04-08T18:13:48.299Z,13.50
2023-04-08T18:16:22.881Z,13.47
2023-04-08T18:18:52.360Z,13.38
2023-04-08T18:21:21.692Z,13.29
2023-04-08T18:23:51.003Z,13.21
2023-04-08T18:26:18.849Z,13.13
2023-04-08T18:28:46.897Z,13.07
2023-04-08T18:31:14.288Z,13.03
2023-04-08T18:33:41.941Z,12.98
2023-04-08T18:36:10.082Z,12.92
2023-04-08T18:38:39.696Z,12.86
2023-04-08T18:41:08.584Z,12.82
2023-04-08T18:43:36.268Z,12.81
2023-04-08T18:46:04.599Z,12.78
2023-04-08T18:48:33.319Z,12.76
2023-04-08T18:51:01.649Z,12.76
2023-04-08T18:53:30.728Z,12.76
2023-04-08T18:55:59.468Z,12.76
2023-04-08T18:58:27.221Z,12.78
2023-04-08T19:00:54.484Z,12.75
2023-04-08T19:03:23.469Z,12.74
2023-04-08T19:05:51.340Z,12.71
2023-04-08T19:08:19.207Z,12.70
2023-04-08T19:10:46.704Z,12.72
2023-04-08T19:13:14.531Z,12.75
2023-04-08T19:15:42.803Z,12.75
2023-04-08T19:18:10.365Z,12.77
2023-04-08T19:20:39.352Z,12.84
2023-04-08T19:23:06.749Z,12.90
2023-04-08T19:25:35.393Z,12.93
2023-04-08T19:28:05.114Z,12.89
2023-04-08T19:30:37.996Z,12.81
2023-04-08T19:33:10.357Z,12.80
2023-04-08T19:35:37.913Z,12.78
2023-04-08T19:38:05.308Z,12.77
2023-04-08T19:40:33.144Z,12.78
2023-04-08T19:43:00.745Z,12.75
2023-04-08T19:45:29.283Z,12.69
2023-04-08T19:47:56.702Z,12.64
2023-04-08T19:50:25.117Z,12.66
2023-04-08T19:52:52.817Z,12.70
2023-04-08T19:55:21.936Z,12.72
2023-04-08T19:57:51.372Z,12.73
2023-04-08T20:00:20.883Z,12.71
2023-04-08T20:02:49.451Z,12.68
2023-04-08T20:05:17.329Z,12.65
2023-04-08T20:07:44.685Z,12.64
2023-04-08T20:10:12.040Z,12.62
2023-04-08T20:12:41.033Z,12.60
2023-04-08T20:15:22.765Z,12.55
2023-04-08T20:17:52.239Z,12.48
2023-04-08T20:20:20.404Z,12.42
2023-04-08T20:22:47.966Z,12.37
2023-04-08T20:25:15.830Z,12.32
2023-04-08T20:27:45.784Z,12.27
2023-04-08T20:30:13.719Z,12.24
2023-04-08T20:32:41.124Z,12.22
2023-04-08T20:35:09.342Z,12.20
2023-04-08T20:37:37.624Z,12.15
2023-04-08T20:40:07.020Z,12.09
2023-04-08T20:42:36.122Z,12.03
2023-04-08T20:45:03.559Z,11.96
2023-04-08T20:47:32.985Z,11.93
2023-04-08T20:50:00.223Z,11.90
2023-04-08T20:52:27.573Z,11.85
2023-04-08T20:54:55.462Z,11.80
2023-04-08T20:57:23.410Z,11.77
2023-04-08T20:59:53.676Z,11.73
2023-04-08T21:02:21.226Z,11.71
2023-04-08T21:04:49.063Z,11.68
2023-04-08T21:07:17.130Z,11.61
2023-04-08T21:09:46.701Z,11.57
2023-04-08T21:12:14.295Z,11.54
2023-04-08T21:14:41.752Z,11.51
2023-04-08T21:17:09.210Z,11.50
2023-04-08T21:19:36.663Z,11.49
2023-04-08T21:22:04.431Z,11.47
2023-04-08T21:24:32.602Z,11.45
2023-04-08T21:27:01.182Z,11.44
2023-04-08T21:29:28.647Z,11.44
2023-04-08T21:31:56.595Z,11.42
2023-04-08T21:34:23.962Z,11.40
2023-04-08T21:36:51.662Z,11.36
2023-04-08T21:39:18.777Z,11.32
2023-04-08T21:41:46.123Z,11.29
2023-04-08T21:44:14.932Z,11.28
2023-04-08T21:46:43.086Z,11.25
2023-04-08T21:49:11.184Z,11.23
2023-04-08T21:51:40.458Z,11.21
2023-04-08T21:54:08.016Z,11.17
2023-04-08T21:56:35.490Z,11.15
2023-04-08T21:59:03.583Z,11.14
2023-04-08T22:01:32.398Z,11.14
2023-04-08T22:04:01.159Z,11.14
2023-04-08T22:06:32.672Z,11.15
2023-04-08T22:09:00.640Z,11.16
2023-04-08T22:11:27.890Z,11.16
2023-04-08T22:13:55.456Z,11.14
2023-04-08T22:16:26.018Z,11.12
2023-04-08T22:18:53.666Z,11.15
2023-04-08T22:21:21.405Z,11.19
2023-04-08T22:23:50.605Z,11.23
2023-04-08T22:26:18.107Z,11.27
2023-04-08T22:28:50.458Z,11.32
2023-04-08T22:31:18.996Z,11.40
2023-04-08T22:33:47.294Z,11.45
2023-04-08T22:36:14.657Z,11.46
2023-04-08T22:38:42.209Z,11.44
2023-04-08T22:41:19.109Z,11.45
2023-04-08T22:43:46.855Z,11.47
2023-04-08T22:46:14.695Z,11.47
2023-04-08T22:48:42.073Z,11.49
2023-04-08T22:51:12.241Z,11.52
2023-04-08T22:53:39.713Z,11.58
2023-04-08T22:56:07.208Z,11.65
2023-04-08T22:58:38.272Z,11.73
2023-04-08T23:01:13.202Z,11.80
2023-04-08T23:03:41.465Z,11.87
2023-04-08T23:06:10.070Z,11.93
2023-04-08T23:08:39.022Z,11.99
2023-04-08T23:11:06.616Z,12.03
2023-04-08T23:13:35.690Z,12.07
2023-04-08T23:16:06.405Z,12.09
2023-04-08T23:18:33.768Z,12.08
2023-04-08T23:21:01.125Z,12.07
2023-04-08T23:23:29.910Z,12.06
2023-04-08T23:25:57.322Z,12.06
2023-04-08T23:28:26.601Z,12.05
2023-04-08T23:30:54.160Z,12.08
2023-04-08T23:33:22.296Z,12.08
2023-04-08T23:35:50.176Z,12.07
2023-04-08T23:38:17.616Z,12.05
2023-04-08T23:40:45.387Z,12.03
2023-04-08T23:43:13.145Z,12.00
2023-04-08T23:45:40.709Z,12.02
2023-04-08T23:48:10.027Z,12.05
2023-04-08T23:50:37.779Z,12.10
2023-04-08T23:53:05.351Z,12.15
2023-04-08T23:55:35.957Z,12.18
2023-04-08T23:58:03.431Z,12.23
